BWA401 TNCC-TTPP
Flight info
| Callsign | BWA401 |
|---|---|
| Flight time | 1h 14m |
| Altitude | 39000 |
| Route | BONAX1K BONAX UL219 MEGIR DCT ANELU DCT LEXOR DCT TALUS |
| Aircraft | B38M/M-SDE1FGHILORVWXY/HB1 |
Departure
| Time | 2026-04-21 22:57 |
|---|---|
| Airport | Hato International Airport (TNCC) |
Arrival
| Time | 2026-04-22 00:11 |
|---|---|
| Airport | Piarco International Airport (TTPP) |
| Time | Latitude | Longitude | Altitude | Speed | Heading |
|---|---|---|---|---|---|
| 2026-04-21 22:24 | 12.18552 | -68.95677 | 54 ft | 0 kts | 193° |
| 2026-04-21 22:45 | 12.18563 | -68.95675 | 53 ft | 2 kts | 193° |
| 2026-04-21 22:46 | 12.18577 | -68.95672 | 52 ft | 2 kts | 192° |
| 2026-04-21 22:46 | 12.18588 | -68.95670 | 51 ft | 0 kts | 193° |
| 2026-04-21 22:46 | 12.18601 | -68.95667 | 50 ft | 2 kts | 178° |
| 2026-04-21 22:46 | 12.18617 | -68.95669 | 50 ft | 2 kts | 163° |
| 2026-04-21 22:47 | 12.18631 | -68.95675 | 49 ft | 2 kts | 148° |
| 2026-04-21 22:47 | 12.18642 | -68.95685 | 48 ft | 2 kts | 133° |
| 2026-04-21 22:47 | 12.18651 | -68.95697 | 48 ft | 2 kts | 117° |
| 2026-04-21 22:47 | 12.18657 | -68.95710 | 48 ft | 0 kts | 104° |
| 2026-04-21 22:48 | 12.18658 | -68.95717 | 48 ft | 0 kts | 101° |
| 2026-04-21 22:50 | 12.18654 | -68.95700 | 48 ft | 6 kts | 102° |
| 2026-04-21 22:50 | 12.18643 | -68.95645 | 48 ft | 8 kts | 102° |
| 2026-04-21 22:50 | 12.18630 | -68.95587 | 48 ft | 9 kts | 102° |
| 2026-04-21 22:50 | 12.18614 | -68.95509 | 49 ft | 12 kts | 102° |
| 2026-04-21 22:51 | 12.18640 | -68.95428 | 48 ft | 15 kts | 31° |
| 2026-04-21 22:51 | 12.18752 | -68.95406 | 43 ft | 17 kts | 346° |
| 2026-04-21 22:51 | 12.18795 | -68.95511 | 42 ft | 20 kts | 284° |
| 2026-04-21 22:51 | 12.18832 | -68.95684 | 43 ft | 29 kts | 284° |
| 2026-04-21 22:52 | 12.18866 | -68.95891 | 43 ft | 20 kts | 252° |
| 2026-04-21 22:52 | 12.18755 | -68.95950 | 46 ft | 17 kts | 203° |
| 2026-04-21 22:52 | 12.18727 | -68.96042 | 48 ft | 14 kts | 282° |
| 2026-04-21 22:52 | 12.18748 | -68.96151 | 50 ft | 18 kts | 281° |
| 2026-04-21 22:53 | 12.18780 | -68.96298 | 49 ft | 21 kts | 282° |
| 2026-04-21 22:53 | 12.18812 | -68.96448 | 50 ft | 21 kts | 282° |
| 2026-04-21 22:53 | 12.18844 | -68.96597 | 49 ft | 21 kts | 282° |
| 2026-04-21 22:53 | 12.18876 | -68.96751 | 49 ft | 23 kts | 282° |
| 2026-04-21 22:54 | 12.18911 | -68.96911 | 49 ft | 23 kts | 282° |
| 2026-04-21 22:54 | 12.18944 | -68.97077 | 48 ft | 23 kts | 281° |
| 2026-04-21 22:54 | 12.18978 | -68.97238 | 47 ft | 23 kts | 283° |
| 2026-04-21 22:54 | 12.19013 | -68.97405 | 46 ft | 24 kts | 282° |
| 2026-04-21 22:55 | 12.19042 | -68.97545 | 47 ft | 14 kts | 283° |
| 2026-04-21 22:55 | 12.19072 | -68.97637 | 48 ft | 10 kts | 326° |
| 2026-04-21 22:55 | 12.19155 | -68.97638 | 46 ft | 14 kts | 11° |
| 2026-04-21 22:55 | 12.19209 | -68.97562 | 44 ft | 14 kts | 75° |
| 2026-04-21 22:56 | 12.19205 | -68.97458 | 43 ft | 14 kts | 102° |
| 2026-04-21 22:56 | 12.19182 | -68.97341 | 43 ft | 33 kts | 102° |
| 2026-04-21 22:56 | 12.19061 | -68.96783 | 42 ft | 122 kts | 101° |
| 2026-04-21 22:56 | 12.18830 | -68.95689 | 77 ft | 186 kts | 102° |
| 2026-04-21 22:57 | 12.18523 | -68.94330 | 674 ft | 196 kts | 103° |
| 2026-04-21 22:57 | 12.18235 | -68.92969 | 1230 ft | 199 kts | 96° |
| 2026-04-21 22:57 | 12.18254 | -68.91537 | 1718 ft | 201 kts | 85° |
| 2026-04-21 22:57 | 12.18404 | -68.90123 | 2300 ft | 203 kts | 83° |
| 2026-04-21 22:58 | 12.18571 | -68.88686 | 2876 ft | 205 kts | 83° |
| 2026-04-21 22:58 | 12.18744 | -68.87214 | 3385 ft | 215 kts | 83° |
| 2026-04-21 22:58 | 12.18850 | -68.85623 | 3986 ft | 234 kts | 94° |
| 2026-04-21 22:58 | 12.18596 | -68.83922 | 4604 ft | 253 kts | 101° |
| 2026-04-21 22:59 | 12.18208 | -68.82084 | 5205 ft | 274 kts | 102° |
| 2026-04-21 22:59 | 12.17772 | -68.80093 | 5806 ft | 293 kts | 102° |
| 2026-04-21 22:59 | 12.17310 | -68.77986 | 6399 ft | 311 kts | 102° |
| 2026-04-21 22:59 | 12.16826 | -68.75775 | 6983 ft | 327 kts | 102° |
| 2026-04-21 23:00 | 12.16328 | -68.73494 | 7558 ft | 332 kts | 102° |
| 2026-04-21 23:00 | 12.15908 | -68.71128 | 8166 ft | 335 kts | 96° |
| 2026-04-21 23:00 | 12.15774 | -68.68738 | 8874 ft | 339 kts | 90° |
| 2026-04-21 23:00 | 12.15723 | -68.66299 | 9583 ft | 342 kts | 94° |
| 2026-04-21 23:01 | 12.15511 | -68.63836 | 10235 ft | 353 kts | 96° |
| 2026-04-21 23:01 | 12.15239 | -68.61273 | 10851 ft | 360 kts | 96° |
| 2026-04-21 23:01 | 12.14965 | -68.58735 | 11448 ft | 363 kts | 96° |
| 2026-04-21 23:01 | 12.14685 | -68.56134 | 12055 ft | 367 kts | 96° |
| 2026-04-21 23:02 | 12.14405 | -68.53520 | 12659 ft | 369 kts | 96° |
| 2026-04-21 23:02 | 12.14122 | -68.50888 | 13264 ft | 372 kts | 96° |
| 2026-04-21 23:02 | 12.13839 | -68.48264 | 13862 ft | 375 kts | 96° |
| 2026-04-21 23:02 | 12.13557 | -68.45564 | 14472 ft | 377 kts | 95° |
| 2026-04-21 23:03 | 12.13300 | -68.42816 | 15088 ft | 380 kts | 95° |
| 2026-04-21 23:03 | 12.13049 | -68.40066 | 15700 ft | 383 kts | 95° |
| 2026-04-21 23:03 | 12.12798 | -68.37319 | 16305 ft | 386 kts | 95° |
| 2026-04-21 23:03 | 12.12546 | -68.34565 | 16908 ft | 389 kts | 95° |
| 2026-04-21 23:04 | 12.12289 | -68.31755 | 17523 ft | 392 kts | 95° |
| 2026-04-21 23:04 | 12.12033 | -68.28963 | 18130 ft | 396 kts | 95° |
| 2026-04-21 23:04 | 12.11769 | -68.26086 | 18749 ft | 399 kts | 95° |
| 2026-04-21 23:04 | 12.11504 | -68.23193 | 19367 ft | 402 kts | 95° |
| 2026-04-21 23:05 | 12.11238 | -68.20302 | 19979 ft | 406 kts | 95° |
| 2026-04-21 23:05 | 12.10967 | -68.17353 | 20599 ft | 409 kts | 94° |
| 2026-04-21 23:05 | 12.10701 | -68.14465 | 21200 ft | 413 kts | 94° |
| 2026-04-21 23:05 | 12.10431 | -68.11537 | 21805 ft | 416 kts | 94° |
| 2026-04-21 23:06 | 12.10155 | -68.08538 | 22419 ft | 419 kts | 94° |
| 2026-04-21 23:06 | 12.09881 | -68.05574 | 23021 ft | 422 kts | 94° |
| 2026-04-21 23:06 | 12.09598 | -68.02516 | 23638 ft | 424 kts | 94° |
| 2026-04-21 23:06 | 12.09321 | -67.99522 | 24239 ft | 426 kts | 94° |
| 2026-04-21 23:07 | 12.09042 | -67.96512 | 24840 ft | 428 kts | 94° |
| 2026-04-21 23:07 | 12.08760 | -67.93464 | 25446 ft | 430 kts | 94° |
| 2026-04-21 23:07 | 12.08475 | -67.90395 | 25996 ft | 433 kts | 94° |
| 2026-04-21 23:07 | 12.08186 | -67.87284 | 26507 ft | 436 kts | 94° |
| 2026-04-21 23:08 | 12.07884 | -67.84190 | 27011 ft | 439 kts | 96° |
| 2026-04-21 23:08 | 12.07270 | -67.81099 | 27526 ft | 444 kts | 103° |
| 2026-04-21 23:08 | 12.06388 | -67.78053 | 28033 ft | 447 kts | 105° |
| 2026-04-21 23:08 | 12.05450 | -67.75051 | 28531 ft | 449 kts | 105° |
| 2026-04-21 23:09 | 12.04530 | -67.72079 | 29022 ft | 451 kts | 105° |
| 2026-04-21 23:09 | 12.03598 | -67.69049 | 29519 ft | 452 kts | 105° |
| 2026-04-21 23:09 | 12.02640 | -67.65927 | 30030 ft | 454 kts | 104° |
| 2026-04-21 23:09 | 12.01690 | -67.62824 | 30537 ft | 454 kts | 104° |
| 2026-04-21 23:10 | 12.00738 | -67.59714 | 30899 ft | 459 kts | 104° |
| 2026-04-21 23:10 | 11.99784 | -67.56595 | 31106 ft | 466 kts | 104° |
| 2026-04-21 23:10 | 11.98792 | -67.53349 | 31316 ft | 472 kts | 104° |
| 2026-04-21 23:10 | 11.97809 | -67.50137 | 31500 ft | 473 kts | 104° |
| 2026-04-21 23:11 | 11.96843 | -67.46983 | 31647 ft | 472 kts | 104° |
| 2026-04-21 23:11 | 11.95850 | -67.43740 | 31822 ft | 471 kts | 104° |
| 2026-04-21 23:11 | 11.94907 | -67.40664 | 32018 ft | 471 kts | 104° |
| 2026-04-21 23:11 | 11.93914 | -67.37421 | 32223 ft | 471 kts | 104° |
| 2026-04-21 23:12 | 11.92974 | -67.34354 | 32417 ft | 471 kts | 104° |
| 2026-04-21 23:12 | 11.91989 | -67.31140 | 32626 ft | 471 kts | 104° |
| 2026-04-21 23:12 | 11.91000 | -67.27916 | 32835 ft | 471 kts | 104° |
| 2026-04-21 23:12 | 11.90019 | -67.24715 | 33043 ft | 470 kts | 104° |
| 2026-04-21 23:13 | 11.89022 | -67.21469 | 33243 ft | 470 kts | 104° |
| 2026-04-21 23:13 | 11.88034 | -67.18248 | 33442 ft | 470 kts | 104° |
| 2026-04-21 23:13 | 11.87052 | -67.15050 | 33640 ft | 469 kts | 104° |
| 2026-04-21 23:13 | 11.86072 | -67.11860 | 33837 ft | 468 kts | 104° |
| 2026-04-21 23:14 | 11.85094 | -67.08675 | 34034 ft | 468 kts | 104° |
| 2026-04-21 23:14 | 11.84123 | -67.05518 | 34230 ft | 467 kts | 104° |
| 2026-04-21 23:14 | 11.83156 | -67.02370 | 34426 ft | 466 kts | 104° |
| 2026-04-21 23:14 | 11.82179 | -66.99197 | 34623 ft | 465 kts | 104° |
| 2026-04-21 23:15 | 11.81212 | -66.96050 | 34820 ft | 464 kts | 104° |
| 2026-04-21 23:15 | 11.80238 | -66.92886 | 34955 ft | 465 kts | 104° |
| 2026-04-21 23:15 | 11.78293 | -66.86570 | 34963 ft | 463 kts | 104° |
| 2026-04-21 23:16 | 11.76353 | -66.80274 | 34964 ft | 463 kts | 104° |
| 2026-04-21 23:16 | 11.74415 | -66.73989 | 34964 ft | 463 kts | 104° |
| 2026-04-21 23:17 | 11.72474 | -66.67702 | 34963 ft | 463 kts | 104° |
| 2026-04-21 23:17 | 11.70545 | -66.61454 | 34963 ft | 463 kts | 104° |
| 2026-04-21 23:18 | 11.68601 | -66.55165 | 34963 ft | 463 kts | 104° |
| 2026-04-21 23:18 | 11.66664 | -66.48903 | 34963 ft | 463 kts | 104° |
| 2026-04-21 23:19 | 11.64702 | -66.42567 | 34963 ft | 463 kts | 104° |
| 2026-04-21 23:19 | 11.62748 | -66.36259 | 34963 ft | 463 kts | 104° |
| 2026-04-21 23:20 | 11.60800 | -66.29978 | 34966 ft | 463 kts | 104° |
| 2026-04-21 23:20 | 11.58849 | -66.23694 | 34966 ft | 463 kts | 104° |
| 2026-04-21 23:21 | 11.56895 | -66.17401 | 34966 ft | 463 kts | 104° |
| 2026-04-21 23:21 | 11.54947 | -66.11135 | 34966 ft | 462 kts | 104° |
| 2026-04-21 23:22 | 11.52992 | -66.04851 | 34966 ft | 463 kts | 104° |
| 2026-04-21 23:22 | 11.51054 | -65.98628 | 34966 ft | 463 kts | 104° |
| 2026-04-21 23:23 | 11.49090 | -65.92324 | 34966 ft | 463 kts | 104° |
| 2026-04-21 23:23 | 11.47127 | -65.86031 | 34966 ft | 463 kts | 104° |
| 2026-04-21 23:24 | 11.45178 | -65.79787 | 34965 ft | 463 kts | 104° |
| 2026-04-21 23:24 | 11.43215 | -65.73502 | 34967 ft | 463 kts | 104° |
| 2026-04-21 23:25 | 11.41246 | -65.67204 | 34975 ft | 463 kts | 104° |
| 2026-04-21 23:25 | 11.39290 | -65.60954 | 34984 ft | 462 kts | 104° |
| 2026-04-21 23:26 | 11.37326 | -65.54681 | 34993 ft | 462 kts | 104° |
| 2026-04-21 23:26 | 11.35365 | -65.48425 | 34999 ft | 462 kts | 104° |
| 2026-04-21 23:27 | 11.33404 | -65.42173 | 34999 ft | 462 kts | 104° |
| 2026-04-21 23:27 | 11.31443 | -65.35927 | 34999 ft | 462 kts | 104° |
| 2026-04-21 23:28 | 11.29471 | -65.29648 | 35002 ft | 462 kts | 105° |
| 2026-04-21 23:28 | 11.27506 | -65.23398 | 35002 ft | 462 kts | 105° |
| 2026-04-21 23:29 | 11.25533 | -65.17130 | 35001 ft | 462 kts | 105° |
| 2026-04-21 23:29 | 11.23562 | -65.10873 | 35001 ft | 462 kts | 105° |
| 2026-04-21 23:30 | 11.21595 | -65.04631 | 35001 ft | 462 kts | 105° |
| 2026-04-21 23:30 | 11.19625 | -64.98387 | 35001 ft | 462 kts | 104° |
| 2026-04-21 23:31 | 11.17662 | -64.92171 | 35001 ft | 461 kts | 104° |
| 2026-04-21 23:31 | 11.15688 | -64.85922 | 35001 ft | 460 kts | 104° |
| 2026-04-21 23:32 | 11.13724 | -64.79710 | 35001 ft | 459 kts | 104° |
| 2026-04-21 23:32 | 11.11770 | -64.73538 | 35001 ft | 459 kts | 104° |
| 2026-04-21 23:33 | 11.09804 | -64.67329 | 35001 ft | 459 kts | 104° |
| 2026-04-21 23:33 | 11.07831 | -64.61086 | 35001 ft | 459 kts | 103° |
| 2026-04-21 23:34 | 11.06202 | -64.54813 | 35001 ft | 457 kts | 100° |
| 2026-04-21 23:34 | 11.04642 | -64.48487 | 35001 ft | 457 kts | 100° |
| 2026-04-21 23:35 | 11.03089 | -64.42239 | 35001 ft | 457 kts | 100° |
| 2026-04-21 23:35 | 11.01509 | -64.35912 | 35000 ft | 457 kts | 100° |
| 2026-04-21 23:36 | 10.99924 | -64.29587 | 35004 ft | 457 kts | 101° |
| 2026-04-21 23:36 | 10.98348 | -64.23315 | 35004 ft | 456 kts | 101° |
| 2026-04-21 23:37 | 10.96800 | -64.17165 | 35004 ft | 456 kts | 101° |
| 2026-04-21 23:37 | 10.95234 | -64.10949 | 35004 ft | 456 kts | 101° |
| 2026-04-21 23:38 | 10.93673 | -64.04763 | 35004 ft | 456 kts | 101° |
| 2026-04-21 23:38 | 10.92081 | -63.98462 | 35003 ft | 456 kts | 101° |
| 2026-04-21 23:39 | 10.90599 | -63.92149 | 35005 ft | 454 kts | 97° |
| 2026-04-21 23:39 | 10.89438 | -63.85818 | 34996 ft | 454 kts | 97° |
| 2026-04-21 23:40 | 10.88270 | -63.79448 | 34996 ft | 454 kts | 97° |
| 2026-04-21 23:40 | 10.87097 | -63.73112 | 34996 ft | 454 kts | 97° |
| 2026-04-21 23:41 | 10.85930 | -63.66846 | 34996 ft | 454 kts | 97° |
| 2026-04-21 23:41 | 10.84768 | -63.60640 | 34596 ft | 440 kts | 97° |
| 2026-04-21 23:42 | 10.84201 | -63.57624 | 34262 ft | 431 kts | 97° |
| 2026-04-21 23:42 | 10.83650 | -63.54694 | 33930 ft | 423 kts | 97° |
| 2026-04-21 23:42 | 10.83102 | -63.51781 | 33597 ft | 417 kts | 97° |
| 2026-04-21 23:42 | 10.82566 | -63.48931 | 33270 ft | 415 kts | 97° |
| 2026-04-21 23:43 | 10.82042 | -63.46140 | 32949 ft | 414 kts | 97° |
| 2026-04-21 23:43 | 10.81504 | -63.43280 | 32618 ft | 412 kts | 97° |
| 2026-04-21 23:43 | 10.80972 | -63.40455 | 32288 ft | 410 kts | 97° |
| 2026-04-21 23:43 | 10.80438 | -63.37620 | 31955 ft | 407 kts | 97° |
| 2026-04-21 23:44 | 10.79910 | -63.34821 | 31623 ft | 404 kts | 98° |
| 2026-04-21 23:44 | 10.79381 | -63.32022 | 31297 ft | 402 kts | 98° |
| 2026-04-21 23:44 | 10.78850 | -63.29211 | 30968 ft | 400 kts | 98° |
| 2026-04-21 23:44 | 10.78323 | -63.26424 | 30640 ft | 398 kts | 98° |
| 2026-04-21 23:45 | 10.77806 | -63.23694 | 30317 ft | 396 kts | 98° |
| 2026-04-21 23:45 | 10.76771 | -63.18228 | 29664 ft | 391 kts | 98° |
| 2026-04-21 23:45 | 10.76260 | -63.15530 | 29338 ft | 389 kts | 98° |
| 2026-04-21 23:46 | 10.75751 | -63.12848 | 29013 ft | 387 kts | 98° |
| 2026-04-21 23:46 | 10.75241 | -63.10157 | 28685 ft | 385 kts | 98° |
| 2026-04-21 23:46 | 10.74739 | -63.07512 | 28361 ft | 383 kts | 98° |
| 2026-04-21 23:46 | 10.74226 | -63.04813 | 28029 ft | 382 kts | 98° |
| 2026-04-21 23:47 | 10.73724 | -63.02168 | 27703 ft | 381 kts | 99° |
| 2026-04-21 23:47 | 10.73222 | -62.99528 | 27376 ft | 380 kts | 99° |
| 2026-04-21 23:47 | 10.72720 | -62.96888 | 27042 ft | 379 kts | 99° |
| 2026-04-21 23:47 | 10.72246 | -62.94395 | 26628 ft | 377 kts | 99° |
| 2026-04-21 23:48 | 10.71751 | -62.91798 | 26201 ft | 373 kts | 99° |
| 2026-04-21 23:48 | 10.71262 | -62.89231 | 25775 ft | 370 kts | 99° |
| 2026-04-21 23:48 | 10.70773 | -62.86663 | 25345 ft | 367 kts | 99° |
| 2026-04-21 23:48 | 10.70292 | -62.84140 | 24920 ft | 364 kts | 99° |
| 2026-04-21 23:49 | 10.69813 | -62.81632 | 24437 ft | 356 kts | 100° |
| 2026-04-21 23:49 | 10.69345 | -62.79179 | 23956 ft | 349 kts | 100° |
| 2026-04-21 23:49 | 10.68823 | -62.76790 | 23470 ft | 343 kts | 108° |
| 2026-04-21 23:49 | 10.67769 | -62.74659 | 23022 ft | 338 kts | 124° |
| 2026-04-21 23:50 | 10.66263 | -62.72839 | 22559 ft | 333 kts | 131° |
| 2026-04-21 23:50 | 10.64685 | -62.71161 | 22084 ft | 329 kts | 132° |
| 2026-04-21 23:50 | 10.63114 | -62.69517 | 21608 ft | 325 kts | 132° |
| 2026-04-21 23:50 | 10.61554 | -62.67885 | 21131 ft | 321 kts | 132° |
| 2026-04-21 23:51 | 10.59991 | -62.66246 | 20647 ft | 318 kts | 132° |
| 2026-04-21 23:51 | 10.58458 | -62.64636 | 20168 ft | 315 kts | 132° |
| 2026-04-21 23:51 | 10.56932 | -62.63029 | 19685 ft | 312 kts | 132° |
| 2026-04-21 23:51 | 10.55453 | -62.61467 | 19213 ft | 309 kts | 132° |
| 2026-04-21 23:52 | 10.54114 | -62.59770 | 18736 ft | 305 kts | 120° |
| 2026-04-21 23:52 | 10.53230 | -62.57830 | 18271 ft | 301 kts | 106° |
| 2026-04-21 23:52 | 10.52830 | -62.55727 | 17802 ft | 298 kts | 95° |
| 2026-04-21 23:52 | 10.52692 | -62.53632 | 17324 ft | 296 kts | 92° |
| 2026-04-21 23:53 | 10.52600 | -62.51567 | 16851 ft | 295 kts | 92° |
| 2026-04-21 23:53 | 10.52523 | -62.49494 | 16374 ft | 294 kts | 91° |
| 2026-04-21 23:53 | 10.52545 | -62.47433 | 15900 ft | 292 kts | 89° |
| 2026-04-21 23:53 | 10.52591 | -62.45340 | 15415 ft | 291 kts | 90° |
| 2026-04-21 23:54 | 10.52596 | -62.43308 | 14942 ft | 290 kts | 90° |
| 2026-04-21 23:54 | 10.52594 | -62.41229 | 14457 ft | 289 kts | 90° |
| 2026-04-21 23:54 | 10.52593 | -62.39191 | 13979 ft | 288 kts | 90° |
| 2026-04-21 23:54 | 10.52594 | -62.37185 | 13507 ft | 287 kts | 90° |
| 2026-04-21 23:55 | 10.52595 | -62.35146 | 13026 ft | 286 kts | 90° |
| 2026-04-21 23:55 | 10.52598 | -62.33125 | 12551 ft | 285 kts | 90° |
| 2026-04-21 23:55 | 10.52603 | -62.31095 | 12072 ft | 284 kts | 90° |
| 2026-04-21 23:55 | 10.52607 | -62.29105 | 11601 ft | 283 kts | 90° |
| 2026-04-21 23:56 | 10.52613 | -62.27096 | 11124 ft | 282 kts | 90° |
| 2026-04-21 23:56 | 10.52618 | -62.25106 | 10649 ft | 281 kts | 90° |
| 2026-04-21 23:56 | 10.52624 | -62.23134 | 10177 ft | 280 kts | 90° |
| 2026-04-21 23:56 | 10.52630 | -62.21171 | 9706 ft | 279 kts | 90° |
| 2026-04-21 23:57 | 10.52636 | -62.19208 | 9233 ft | 278 kts | 90° |
| 2026-04-21 23:57 | 10.52642 | -62.17240 | 8756 ft | 277 kts | 90° |
| 2026-04-21 23:57 | 10.52648 | -62.15282 | 8445 ft | 275 kts | 90° |
| 2026-04-21 23:57 | 10.52655 | -62.13322 | 8163 ft | 273 kts | 90° |
| 2026-04-21 23:58 | 10.52661 | -62.11388 | 7887 ft | 272 kts | 90° |
| 2026-04-21 23:58 | 10.52668 | -62.09470 | 7611 ft | 271 kts | 90° |
| 2026-04-21 23:58 | 10.52676 | -62.07525 | 7331 ft | 270 kts | 90° |
| 2026-04-21 23:58 | 10.52683 | -62.05625 | 7056 ft | 269 kts | 90° |
| 2026-04-21 23:59 | 10.52691 | -62.03724 | 6839 ft | 265 kts | 90° |
| 2026-04-21 23:59 | 10.52699 | -62.01849 | 6646 ft | 261 kts | 90° |
| 2026-04-21 23:59 | 10.52707 | -62.00014 | 6455 ft | 257 kts | 90° |
| 2026-04-21 23:59 | 10.52731 | -61.98193 | 6263 ft | 254 kts | 85° |
| 2026-04-22 00:00 | 10.52967 | -61.96423 | 6136 ft | 248 kts | 86° |
| 2026-04-22 00:00 | 10.52920 | -61.94680 | 6022 ft | 248 kts | 97° |
| 2026-04-22 00:00 | 10.52662 | -61.92943 | 5900 ft | 250 kts | 100° |
| 2026-04-22 00:00 | 10.52347 | -61.91211 | 5775 ft | 249 kts | 101° |
| 2026-04-22 00:01 | 10.52014 | -61.89452 | 5647 ft | 248 kts | 101° |
| 2026-04-22 00:01 | 10.51711 | -61.87720 | 5518 ft | 248 kts | 95° |
| 2026-04-22 00:01 | 10.51798 | -61.85960 | 5402 ft | 248 kts | 78° |
| 2026-04-22 00:01 | 10.52299 | -61.84275 | 5284 ft | 249 kts | 70° |
| 2026-04-22 00:02 | 10.52979 | -61.82653 | 5156 ft | 246 kts | 68° |
| 2026-04-22 00:02 | 10.53593 | -61.81034 | 5025 ft | 241 kts | 72° |
| 2026-04-22 00:02 | 10.54121 | -61.79407 | 4894 ft | 237 kts | 73° |
| 2026-04-22 00:02 | 10.54617 | -61.77830 | 4770 ft | 235 kts | 73° |
| 2026-04-22 00:03 | 10.55121 | -61.76220 | 4707 ft | 233 kts | 73° |
| 2026-04-22 00:03 | 10.55608 | -61.74665 | 4570 ft | 235 kts | 73° |
| 2026-04-22 00:03 | 10.56106 | -61.73072 | 4439 ft | 234 kts | 73° |
| 2026-04-22 00:03 | 10.56596 | -61.71506 | 4313 ft | 234 kts | 73° |
| 2026-04-22 00:04 | 10.57093 | -61.69919 | 4186 ft | 233 kts | 73° |
| 2026-04-22 00:04 | 10.57579 | -61.68364 | 4062 ft | 233 kts | 73° |
| 2026-04-22 00:04 | 10.58071 | -61.66791 | 3935 ft | 233 kts | 73° |
| 2026-04-22 00:04 | 10.58566 | -61.65209 | 3808 ft | 232 kts | 73° |
| 2026-04-22 00:05 | 10.59049 | -61.63665 | 3681 ft | 229 kts | 73° |
| 2026-04-22 00:05 | 10.59481 | -61.62116 | 3534 ft | 218 kts | 82° |
| 2026-04-22 00:05 | 10.59568 | -61.60639 | 3452 ft | 208 kts | 90° |
| 2026-04-22 00:05 | 10.59556 | -61.59213 | 3318 ft | 193 kts | 91° |
| 2026-04-22 00:06 | 10.59541 | -61.57862 | 3231 ft | 187 kts | 91° |
| 2026-04-22 00:06 | 10.59533 | -61.56540 | 3157 ft | 186 kts | 91° |
| 2026-04-22 00:06 | 10.59527 | -61.55208 | 3081 ft | 186 kts | 90° |
| 2026-04-22 00:06 | 10.59519 | -61.53884 | 3041 ft | 189 kts | 89° |
| 2026-04-22 00:07 | 10.59518 | -61.52526 | 2958 ft | 189 kts | 89° |
| 2026-04-22 00:07 | 10.59519 | -61.51214 | 2876 ft | 177 kts | 89° |
| 2026-04-22 00:07 | 10.59520 | -61.50005 | 2769 ft | 166 kts | 89° |
| 2026-04-22 00:07 | 10.59521 | -61.48824 | 2699 ft | 167 kts | 89° |
| 2026-04-22 00:08 | 10.59523 | -61.47662 | 2641 ft | 167 kts | 89° |
| 2026-04-22 00:08 | 10.59525 | -61.46516 | 2562 ft | 157 kts | 89° |
| 2026-04-22 00:08 | 10.59520 | -61.45402 | 2422 ft | 159 kts | 89° |
| 2026-04-22 00:08 | 10.59498 | -61.44276 | 2216 ft | 161 kts | 90° |
| 2026-04-22 00:09 | 10.59490 | -61.43163 | 1960 ft | 155 kts | 89° |
| 2026-04-22 00:09 | 10.59481 | -61.42070 | 1680 ft | 153 kts | 89° |
| 2026-04-22 00:09 | 10.59484 | -61.40987 | 1365 ft | 152 kts | 88° |
| 2026-04-22 00:09 | 10.59491 | -61.39925 | 1072 ft | 150 kts | 88° |
| 2026-04-22 00:10 | 10.59499 | -61.38869 | 776 ft | 150 kts | 88° |
| 2026-04-22 00:10 | 10.59513 | -61.37834 | 517 ft | 146 kts | 88° |
| 2026-04-22 00:10 | 10.59518 | -61.36806 | 318 ft | 143 kts | 88° |
| 2026-04-22 00:10 | 10.59525 | -61.35798 | 148 ft | 143 kts | 88° |
| 2026-04-22 00:11 | 10.59527 | -61.34792 | 53 ft | 139 kts | 89° |
| 2026-04-22 00:11 | 10.59532 | -61.33976 | 53 ft | 79 kts | 89° |
| 2026-04-22 00:11 | 10.59537 | -61.33642 | 56 ft | 30 kts | 82° |
| 2026-04-22 00:11 | 10.59603 | -61.33486 | 57 ft | 20 kts | 53° |
| 2026-04-22 00:12 | 10.59687 | -61.33461 | 57 ft | 12 kts | 307° |
| 2026-04-22 00:12 | 10.59700 | -61.33545 | 56 ft | 12 kts | 270° |
| 2026-04-22 00:12 | 10.59698 | -61.33639 | 56 ft | 14 kts | 270° |
| 2026-04-22 00:12 | 10.59730 | -61.33723 | 55 ft | 13 kts | 341° |
| 2026-04-22 00:13 | 10.59812 | -61.33747 | 55 ft | 11 kts | 305° |
| 2026-04-22 00:13 | 10.59824 | -61.33833 | 53 ft | 12 kts | 282° |
| 2026-04-22 00:13 | 10.59872 | -61.33853 | 54 ft | 7 kts | 0° |
| 2026-04-22 00:13 | 10.59918 | -61.33852 | 54 ft | 5 kts | 1° |
| 2026-04-22 00:14 | 10.59929 | -61.33852 | 55 ft | 0 kts | 1° |